Terminal Aerodrome Forecast
Issued by NWS Shreveport, LA

Home | Current Version | Previous Version | Text Only | Print | Product List | Glossary On
Versions: 1 2 3 4 5 6 7 8 9 10 11 12 13 14 15 16
000
FTUS44 KSHV 111700 RRA
TAFTXK
TAF
KTXK 111750Z 1118/1218 23008KT P6SM FEW045 SCT250
     FM120100 18004KT P6SM SCT070 BKN150
     FM120500 13002KT P6SM SCT120 SCT250
     FM121400 23005KT P6SM SKC=

USA.gov is the U.S. government's official web portal to all federal, state and local government web resources and services.